Time;durP1;ratioP1;P1;durP2;ratioP2;P2;SDS_P1;SDS_P2;PMS_P1;PMS_P2;Temp;Humidity;BMP_temperature;BMP_pressure;BME280_temperature;BME280_humidity;BME280_pressure;Samples;Min_cycle;Max_cycle;Signal;HPM_P1;HPM_P2
2023/06/21 00:02:25;;;;;;;16.35;13.55;;;;;;;;;;5076469;28;20097;-76
2023/06/21 00:04:52;;;;;;;20.67;14.88;;;;;;;;;;5093089;28;20048;-76
2023/06/21 00:07:23;;;;;;;19.13;14.65;;;;;;;;;;5059736;28;20070;-75
2023/06/21 00:09:49;;;;;;;19.13;14.77;;;;;;;;;;5092359;28;20040;-75
2023/06/21 00:12:15;;;;;;;19.35;15.70;;;;;;;;;;5092795;28;20169;-76
2023/06/21 00:14:42;;;;;;;19.73;15.05;;;;;;;;;;5093082;28;20046;-76
2023/06/21 00:17:08;;;;;;;21.27;16.13;;;;;;;;;;5093268;28;20123;-76
2023/06/21 00:19:34;;;;;;;22.50;16.05;;;;;;;;;;5076008;28;20040;-76
2023/06/21 00:22:00;;;;;;;21.42;16.85;;;;;;;;;;5092920;28;20044;-76
2023/06/21 00:24:26;;;;;;;21.55;16.40;;;;;;;;;;5076421;28;20400;-75
2023/06/21 00:26:53;;;;;;;19.52;14.85;;;;;;;;;;5093991;28;20116;-75
2023/06/21 00:29:19;;;;;;;22.65;17.25;;;;;;;;;;5093253;28;20040;-75
2023/06/21 00:31:45;;;;;;;23.30;17.90;;;;;;;;;;5075216;28;20473;-76
2023/06/21 00:34:11;;;;;;;22.95;17.60;;;;;;;;;;5094485;28;20031;-75
2023/06/21 00:36:41;;;;;;;18.13;15.07;;;;;;;;;;5093709;28;20552;-75
2023/06/21 00:39:07;;;;;;;24.75;18.83;;;;;;;;;;5093120;28;20048;-75
2023/06/21 00:41:33;;;;;;;24.48;18.52;;;;;;;;;;5093764;28;20042;-76
2023/06/21 00:43:59;;;;;;;24.13;18.38;;;;;;;;;;5091472;28;20155;-75
2023/06/21 00:46:25;;;;;;;26.52;17.88;;;;;;;;;;5092650;28;20054;-75
2023/06/21 00:48:52;;;;;;;26.02;19.52;;;;;;;;;;5075348;28;20028;-76
2023/06/21 00:51:18;;;;;;;25.08;18.98;;;;;;;;;;5093930;28;20032;-75
2023/06/21 00:53:45;;;;;;;28.17;19.90;;;;;;;;;;5092994;28;20075;-75
2023/06/21 00:56:11;;;;;;;28.33;19.92;;;;;;;;;;5094002;28;20120;-76
2023/06/21 00:58:37;;;;;;;26.90;20.42;;;;;;;;;;5092052;28;20382;-76
2023/06/21 01:01:04;;;;;;;29.42;20.92;;;;;;;;;;5092090;28;20063;-76
2023/06/21 01:03:30;;;;;;;28.17;20.85;;;;;;;;;;5058750;28;20048;-75
2023/06/21 01:06:00;;;;;;;29.63;20.75;;;;;;;;;;5092011;28;20052;-75
2023/06/21 01:08:27;;;;;;;32.58;23.40;;;;;;;;;;5092121;28;20051;-75
2023/06/21 01:10:53;;;;;;;29.25;22.70;;;;;;;;;;5091816;28;20089;-75
2023/06/21 01:13:19;;;;;;;32.33;22.67;;;;;;;;;;5091870;28;20040;-75
2023/06/21 01:15:48;;;;;;;31.58;23.15;;;;;;;;;;5090617;28;20075;-75
2023/06/21 01:18:15;;;;;;;32.05;23.27;;;;;;;;;;5074518;28;20127;-75
2023/06/21 01:20:42;;;;;;;34.03;24.42;;;;;;;;;;5091612;28;20132;-75
2023/06/21 01:23:14;;;;;;;38.67;25.75;;;;;;;;;;5092162;28;20412;-75
2023/06/21 01:25:58;;;;;;;38.83;26.25;;;;;;;;;;5091158;28;20044;-75
2023/06/21 01:28:30;;;;;;;27.83;19.98;;;;;;;;;;5092036;28;20064;-76
2023/06/21 01:30:57;;;;;;;35.22;25.48;;;;;;;;;;5093603;28;20089;-76
2023/06/21 01:33:24;;;;;;;37.65;26.48;;;;;;;;;;5065552;28;20097;-76
2023/06/21 01:35:52;;;;;;;34.70;25.65;;;;;;;;;;5092660;28;20048;-75
2023/06/21 01:38:19;;;;;;;42.28;27.55;;;;;;;;;;5092965;28;20058;-75
2023/06/21 01:40:45;;;;;;;37.08;26.00;;;;;;;;;;5090867;28;20048;-75
2023/06/21 01:43:11;;;;;;;32.22;24.13;;;;;;;;;;5092080;28;20039;-75
2023/06/21 01:45:38;;;;;;;40.30;28.00;;;;;;;;;;5091097;28;20051;-75
2023/06/21 01:48:05;;;;;;;39.65;27.23;;;;;;;;;;5091141;28;20092;-75
2023/06/21 01:50:31;;;;;;;44.35;29.48;;;;;;;;;;5073983;28;20063;-75
2023/06/21 01:52:58;;;;;;;45.72;28.75;;;;;;;;;;5091112;28;20488;-75
2023/06/21 01:55:25;;;;;;;46.72;30.50;;;;;;;;;;5074472;28;20484;-75
2023/06/21 01:57:52;;;;;;;45.65;31.10;;;;;;;;;;5088553;28;20059;-75
2023/06/21 02:00:21;;;;;;;43.63;30.05;;;;;;;;;;5091050;28;20524;-75
2023/06/21 02:02:50;;;;;;;52.53;33.05;;;;;;;;;;5085022;28;20496;-75
2023/06/21 02:05:17;;;;;;;53.03;32.80;;;;;;;;;;5072679;28;20078;-75
2023/06/21 02:07:45;;;;;;;45.55;30.50;;;;;;;;;;5089773;28;20039;-75
2023/06/21 02:10:12;;;;;;;52.58;32.53;;;;;;;;;;5091203;28;20036;-75
2023/06/21 02:12:40;;;;;;;56.35;34.65;;;;;;;;;;5090622;28;20079;-75
2023/06/21 02:15:07;;;;;;;53.15;33.83;;;;;;;;;;5090790;28;20493;-74
2023/06/21 02:17:33;;;;;;;56.63;34.40;;;;;;;;;;5073485;28;20105;-75
2023/06/21 02:19:59;;;;;;;60.63;34.75;;;;;;;;;;5090746;28;20079;-76
2023/06/21 02:22:25;;;;;;;63.05;35.95;;;;;;;;;;5090754;28;20043;-75
2023/06/21 02:24:51;;;;;;;61.17;36.58;;;;;;;;;;5073635;28;20040;-74
2023/06/21 02:27:17;;;;;;;64.35;36.58;;;;;;;;;;5091860;28;20107;-76
2023/06/21 02:29:44;;;;;;;52.90;32.50;;;;;;;;;;5074077;28;20509;-76
2023/06/21 02:32:10;;;;;;;68.38;40.45;;;;;;;;;;5089630;28;20066;-75
2023/06/21 02:34:37;;;;;;;69.32;39.25;;;;;;;;;;5090568;28;20040;-75
2023/06/21 02:37:03;;;;;;;67.10;38.60;;;;;;;;;;5090294;28;20047;-74
2023/06/21 02:39:29;;;;;;;74.25;40.92;;;;;;;;;;5091789;28;20032;-76
2023/06/21 02:41:55;;;;;;;74.05;42.60;;;;;;;;;;5091499;28;20457;-76
2023/06/21 02:44:21;;;;;;;69.07;40.28;;;;;;;;;;5073556;28;20047;-75
2023/06/21 02:46:47;;;;;;;79.70;43.08;;;;;;;;;;5090404;28;20119;-76
2023/06/21 02:49:13;;;;;;;79.28;42.67;;;;;;;;;;5073237;28;20036;-76
2023/06/21 02:51:39;;;;;;;74.88;41.90;;;;;;;;;;5073780;28;20056;-75
2023/06/21 02:54:06;;;;;;;81.60;42.90;;;;;;;;;;5089890;28;20040;-76
2023/06/21 02:56:32;;;;;;;77.03;43.05;;;;;;;;;;5090628;28;20036;-76
2023/06/21 02:58:58;;;;;;;73.22;42.08;;;;;;;;;;5089947;28;20036;-75
2023/06/21 03:01:24;;;;;;;73.72;42.63;;;;;;;;;;5074131;28;20608;-75
2023/06/21 03:03:50;;;;;;;76.05;43.65;;;;;;;;;;5090194;28;20048;-75
2023/06/21 03:06:16;;;;;;;79.10;43.65;;;;;;;;;;5090256;28;20519;-75
2023/06/21 03:08:43;;;;;;;74.38;42.88;;;;;;;;;;5091878;28;20443;-75
2023/06/21 03:11:10;;;;;;;80.38;44.88;;;;;;;;;;5090243;28;20392;-75
2023/06/21 03:13:37;;;;;;;75.22;42.85;;;;;;;;;;5090256;28;20036;-74
2023/06/21 03:16:03;;;;;;;72.32;41.78;;;;;;;;;;5089550;28;20040;-75
2023/06/21 03:18:29;;;;;;;70.95;41.97;;;;;;;;;;5090425;28;20044;-76
2023/06/21 03:21:00;;;;;;;76.00;42.42;;;;;;;;;;5072619;28;20036;-76
2023/06/21 03:23:27;;;;;;;80.55;44.75;;;;;;;;;;5091969;28;20531;-76
2023/06/21 03:25:53;;;;;;;77.97;44.30;;;;;;;;;;5089732;28;20059;-76
2023/06/21 03:28:19;;;;;;;74.57;43.72;;;;;;;;;;5090294;28;20129;-76
2023/06/21 03:30:45;;;;;;;76.68;44.80;;;;;;;;;;5090031;28;20084;-76
2023/06/21 03:33:11;;;;;;;77.65;44.60;;;;;;;;;;5073006;28;20040;-76
2023/06/21 03:35:37;;;;;;;86.72;45.55;;;;;;;;;;5090511;28;20481;-76
2023/06/21 03:38:04;;;;;;;85.10;46.00;;;;;;;;;;5089924;28;20174;-75
2023/06/21 03:40:30;;;;;;;83.90;45.20;;;;;;;;;;5090441;28;20040;-76
2023/06/21 03:42:56;;;;;;;80.57;45.42;;;;;;;;;;5089299;28;20047;-76
2023/06/21 03:45:22;;;;;;;77.80;43.95;;;;;;;;;;5092990;28;20044;-75
2023/06/21 03:47:48;;;;;;;80.55;44.35;;;;;;;;;;5093853;28;20044;-74
2023/06/21 03:50:14;;;;;;;82.15;45.85;;;;;;;;;;5079537;28;20496;-75
2023/06/21 03:52:40;;;;;;;82.68;44.55;;;;;;;;;;5093496;28;20051;-75
2023/06/21 03:55:07;;;;;;;76.38;43.50;;;;;;;;;;5093433;28;20048;-74
2023/06/21 03:57:33;;;;;;;78.88;44.03;;;;;;;;;;5076429;28;20090;-75
2023/06/21 04:00:00;;;;;;;82.47;43.15;;;;;;;;;;5092965;28;20235;-75
2023/06/21 04:02:26;;;;;;;81.32;45.15;;;;;;;;;;5085243;28;20113;-75
2023/06/21 04:04:52;;;;;;;80.63;44.22;;;;;;;;;;5092647;28;20097;-75
2023/06/21 04:07:19;;;;;;;81.82;44.17;;;;;;;;;;5075419;28;20063;-76
2023/06/21 04:09:45;;;;;;;76.00;43.08;;;;;;;;;;5093632;28;20538;-76
2023/06/21 04:12:12;;;;;;;88.20;46.60;;;;;;;;;;5092988;28;20497;-77
2023/06/21 04:14:38;;;;;;;72.25;42.58;;;;;;;;;;5093155;28;20032;-77
2023/06/21 04:17:04;;;;;;;81.55;45.00;;;;;;;;;;5093009;28;20094;-77
2023/06/21 04:19:30;;;;;;;68.05;41.72;;;;;;;;;;5092508;28;20039;-77
2023/06/21 04:21:56;;;;;;;65.40;40.58;;;;;;;;;;5094626;28;20089;-76
2023/06/21 04:24:23;;;;;;;64.60;39.17;;;;;;;;;;5092511;28;20032;-77
2023/06/21 04:26:49;;;;;;;48.92;33.47;;;;;;;;;;5092955;28;20131;-76
2023/06/21 04:29:18;;;;;;;46.40;30.77;;;;;;;;;;5092130;28;20035;-75
2023/06/21 04:31:44;;;;;;;39.83;27.40;;;;;;;;;;5092935;28;20035;-76
2023/06/21 04:34:10;;;;;;;29.85;21.85;;;;;;;;;;5092421;28;20044;-75
2023/06/21 04:36:37;;;;;;;27.58;20.50;;;;;;;;;;5094122;28;20036;-74
2023/06/21 04:39:03;;;;;;;26.42;18.25;;;;;;;;;;5092296;28;20036;-74
2023/06/21 04:41:29;;;;;;;25.60;17.27;;;;;;;;;;5092869;28;20063;-75
2023/06/21 04:43:55;;;;;;;21.67;15.35;;;;;;;;;;5092448;28;20097;-75
2023/06/21 04:46:23;;;;;;;22.83;15.30;;;;;;;;;;5092216;28;20124;-75
2023/06/21 04:48:50;;;;;;;19.25;13.27;;;;;;;;;;5092925;28;20471;-75
2023/06/21 04:51:16;;;;;;;18.23;12.98;;;;;;;;;;5081791;28;20151;-75
2023/06/21 04:53:42;;;;;;;17.92;12.85;;;;;;;;;;5092904;28;20047;-76
2023/06/21 04:56:12;;;;;;;20.25;13.57;;;;;;;;;;5074498;28;20046;-76
2023/06/21 04:58:39;;;;;;;20.02;13.07;;;;;;;;;;5092673;28;20504;-76
2023/06/21 05:01:05;;;;;;;19.50;12.32;;;;;;;;;;5093445;28;20056;-76
2023/06/21 05:03:32;;;;;;;18.05;11.82;;;;;;;;;;5092572;28;20496;-74
2023/06/21 05:06:02;;;;;;;18.13;11.18;;;;;;;;;;5091843;28;20080;-75
2023/06/21 05:08:28;;;;;;;16.58;10.50;;;;;;;;;;5092017;28;20050;-75
2023/06/21 05:10:54;;;;;;;16.42;10.43;;;;;;;;;;5074929;28;20086;-75
2023/06/21 05:13:21;;;;;;;16.15;10.68;;;;;;;;;;5091765;28;20044;-75
2023/06/21 05:15:47;;;;;;;14.52;9.93;;;;;;;;;;5091445;28;20043;-75
2023/06/21 05:18:13;;;;;;;18.08;11.15;;;;;;;;;;5091727;28;20040;-76
2023/06/21 05:20:39;;;;;;;14.02;10.10;;;;;;;;;;5091807;28;20044;-76
2023/06/21 05:23:05;;;;;;;13.73;9.75;;;;;;;;;;5093278;28;20035;-77
2023/06/21 05:25:31;;;;;;;14.23;10.05;;;;;;;;;;5092347;28;20040;-76
2023/06/21 05:27:57;;;;;;;15.50;9.65;;;;;;;;;;5078272;28;20078;-76
2023/06/21 05:30:23;;;;;;;13.23;9.13;;;;;;;;;;5075628;28;20075;-75
2023/06/21 05:32:49;;;;;;;16.35;9.50;;;;;;;;;;5093500;28;20051;-76
2023/06/21 05:35:15;;;;;;;13.23;8.60;;;;;;;;;;5074854;28;20044;-76
2023/06/21 05:37:42;;;;;;;12.70;9.65;;;;;;;;;;5092105;28;20488;-76
2023/06/21 05:40:08;;;;;;;13.88;8.93;;;;;;;;;;5091821;28;20485;-76
2023/06/21 05:42:35;;;;;;;14.63;9.35;;;;;;;;;;5091268;28;20062;-76
2023/06/21 05:45:01;;;;;;;12.43;8.52;;;;;;;;;;5091103;28;20040;-74
2023/06/21 05:47:27;;;;;;;12.20;8.38;;;;;;;;;;5074904;28;20097;-74
2023/06/21 05:49:53;;;;;;;13.77;8.73;;;;;;;;;;5092019;28;20524;-74
2023/06/21 05:52:19;;;;;;;12.65;8.02;;;;;;;;;;5090964;28;20036;-74
2023/06/21 05:54:45;;;;;;;11.82;7.32;;;;;;;;;;5090305;28;20066;-74
2023/06/21 05:57:12;;;;;;;10.18;7.68;;;;;;;;;;5092242;28;20039;-75
2023/06/21 05:59:38;;;;;;;10.63;7.85;;;;;;;;;;5091212;28;20042;-74
2023/06/21 06:02:05;;;;;;;11.18;7.80;;;;;;;;;;5091218;28;20055;-74
2023/06/21 06:04:32;;;;;;;11.98;7.22;;;;;;;;;;5090352;28;20044;-74
2023/06/21 06:06:58;;;;;;;10.88;7.00;;;;;;;;;;5090332;28;20040;-76
2023/06/21 06:09:24;;;;;;;8.82;6.63;;;;;;;;;;5073117;28;20040;-74
2023/06/21 06:11:50;;;;;;;10.38;6.85;;;;;;;;;;5071611;28;20485;-74
2023/06/21 06:14:17;;;;;;;10.70;6.78;;;;;;;;;;5073165;28;20528;-74
2023/06/21 06:16:43;;;;;;;7.88;5.85;;;;;;;;;;5090205;28;20378;-74
2023/06/21 06:19:09;;;;;;;10.52;7.05;;;;;;;;;;5090197;28;20051;-74
2023/06/21 06:21:36;;;;;;;12.50;6.35;;;;;;;;;;5089846;28;20044;-75
2023/06/21 06:24:03;;;;;;;10.20;6.50;;;;;;;;;;5084605;28;20047;-74
2023/06/21 06:26:29;;;;;;;8.93;5.90;;;;;;;;;;5073436;28;20061;-74
2023/06/21 06:28:56;;;;;;;9.32;6.25;;;;;;;;;;5074320;28;20090;-74
2023/06/21 06:31:23;;;;;;;8.77;5.80;;;;;;;;;;5090142;28;20109;-74
2023/06/21 06:33:49;;;;;;;8.52;5.50;;;;;;;;;;5090692;28;20121;-74
2023/06/21 06:36:15;;;;;;;8.85;5.93;;;;;;;;;;5057101;28;20102;-74
2023/06/21 06:38:41;;;;;;;9.68;5.60;;;;;;;;;;5090775;28;20389;-74
2023/06/21 06:41:07;;;;;;;8.80;4.40;;;;;;;;;;5090922;28;20500;-74
2023/06/21 06:43:34;;;;;;;8.07;5.05;;;;;;;;;;5090799;28;20469;-74
2023/06/21 06:46:00;;;;;;;8.77;4.50;;;;;;;;;;5090064;28;20040;-74
2023/06/21 06:48:26;;;;;;;6.85;4.43;;;;;;;;;;5090777;28;20569;-74
2023/06/21 06:50:52;;;;;;;9.90;4.60;;;;;;;;;;5090652;28;20499;-73
2023/06/21 06:53:19;;;;;;;6.93;4.35;;;;;;;;;;5090957;28;20511;-74
2023/06/21 06:55:45;;;;;;;6.05;4.68;;;;;;;;;;5067336;28;20181;-74
2023/06/21 06:58:11;;;;;;;6.68;4.68;;;;;;;;;;5090325;28;20085;-73
2023/06/21 07:00:38;;;;;;;6.38;4.70;;;;;;;;;;5090108;28;20047;-73
2023/06/21 07:03:04;;;;;;;7.18;4.70;;;;;;;;;;5092028;28;20044;-74
2023/06/21 07:05:35;;;;;;;7.20;4.65;;;;;;;;;;5091219;28;20044;-73
2023/06/21 07:08:02;;;;;;;6.70;4.25;;;;;;;;;;5085157;28;20115;-74
2023/06/21 07:10:29;;;;;;;5.93;4.40;;;;;;;;;;5090233;28;20032;-74
2023/06/21 07:12:55;;;;;;;6.22;4.95;;;;;;;;;;5074008;28;20036;-74
2023/06/21 07:15:21;;;;;;;8.38;5.18;;;;;;;;;;5090812;28;20036;-74
2023/06/21 07:17:47;;;;;;;7.35;5.10;;;;;;;;;;5090077;28;20050;-73
2023/06/21 07:20:14;;;;;;;7.32;4.82;;;;;;;;;;5094421;28;20040;-74
2023/06/21 07:22:40;;;;;;;7.70;4.05;;;;;;;;;;5093903;28;20094;-74
2023/06/21 07:25:06;;;;;;;6.90;4.30;;;;;;;;;;5094512;28;20083;-74
2023/06/21 07:27:32;;;;;;;7.82;4.18;;;;;;;;;;5093674;28;20468;-73
2023/06/21 07:29:58;;;;;;;6.00;4.07;;;;;;;;;;5094650;28;20043;-74
2023/06/21 07:32:24;;;;;;;6.70;4.40;;;;;;;;;;5094344;28;20036;-73
2023/06/21 07:34:53;;;;;;;7.55;4.43;;;;;;;;;;5094332;28;20408;-73
2023/06/21 07:37:19;;;;;;;7.03;4.45;;;;;;;;;;5094071;28;20040;-74
2023/06/21 07:39:45;;;;;;;6.40;4.03;;;;;;;;;;5060584;28;20115;-75
2023/06/21 07:42:12;;;;;;;6.45;4.15;;;;;;;;;;5093833;28;20044;-74
2023/06/21 07:44:38;;;;;;;10.25;4.50;;;;;;;;;;5077096;28;20036;-73
2023/06/21 07:47:04;;;;;;;8.55;4.28;;;;;;;;;;5093369;28;20044;-74
2023/06/21 07:49:30;;;;;;;6.13;4.40;;;;;;;;;;5093863;28;20044;-76
2023/06/21 07:51:56;;;;;;;6.78;4.10;;;;;;;;;;5093759;28;20072;-74
2023/06/21 07:54:22;;;;;;;6.50;5.00;;;;;;;;;;5094310;28;20432;-75
2023/06/21 07:56:48;;;;;;;5.60;4.10;;;;;;;;;;5092953;28;20046;-74
2023/06/21 07:59:15;;;;;;;5.95;3.90;;;;;;;;;;5093816;28;20036;-75
2023/06/21 08:01:41;;;;;;;5.47;3.70;;;;;;;;;;5093076;28;20048;-77
2023/06/21 08:04:07;;;;;;;5.35;3.95;;;;;;;;;;5093769;28;20044;-74
2023/06/21 08:06:33;;;;;;;5.57;3.95;;;;;;;;;;5092929;28;20071;-74
2023/06/21 08:08:59;;;;;;;6.13;3.70;;;;;;;;;;5093491;28;20036;-75
2023/06/21 08:11:25;;;;;;;5.22;3.10;;;;;;;;;;5060016;28;20040;-74
2023/06/21 08:13:51;;;;;;;5.93;3.53;;;;;;;;;;5093426;28;20396;-77
2023/06/21 08:16:17;;;;;;;5.60;3.30;;;;;;;;;;5076793;28;20079;-74
2023/06/21 08:18:43;;;;;;;5.57;3.50;;;;;;;;;;5092618;28;20051;-74
2023/06/21 08:21:10;;;;;;;4.72;3.70;;;;;;;;;;5093268;28;20044;-75
2023/06/21 08:23:36;;;;;;;4.40;3.40;;;;;;;;;;5093451;28;20044;-75
2023/06/21 08:26:02;;;;;;;5.80;3.95;;;;;;;;;;5093108;28;20048;-75
2023/06/21 08:28:28;;;;;;;6.28;3.78;;;;;;;;;;5092896;28;20066;-75
2023/06/21 08:30:54;;;;;;;6.25;4.05;;;;;;;;;;5093184;28;20062;-73
2023/06/21 08:33:20;;;;;;;6.72;4.30;;;;;;;;;;5093071;28;20044;-74
2023/06/21 08:35:46;;;;;;;5.75;4.10;;;;;;;;;;5092788;28;20114;-74
2023/06/21 08:38:12;;;;;;;5.85;3.80;;;;;;;;;;5092494;28;20048;-75
2023/06/21 08:40:38;;;;;;;8.77;4.30;;;;;;;;;;5093873;28;20454;-73
2023/06/21 08:43:04;;;;;;;6.32;3.83;;;;;;;;;;5094141;28;20059;-74
2023/06/21 08:45:30;;;;;;;5.75;3.75;;;;;;;;;;5093288;28;20424;-74
2023/06/21 08:48:03;;;;;;;6.30;3.60;;;;;;;;;;5092253;28;20040;-74
2023/06/21 08:50:30;;;;;;;7.25;3.90;;;;;;;;;;5092567;28;20123;-74
2023/06/21 08:52:58;;;;;;;6.63;3.83;;;;;;;;;;5075620;28;20040;-74
2023/06/21 08:55:25;;;;;;;4.80;3.50;;;;;;;;;;5092848;28;20040;-73
2023/06/21 08:57:56;;;;;;;5.35;3.70;;;;;;;;;;5093708;28;20381;-74
2023/06/21 09:00:44;;;;;;;5.35;3.50;;;;;;;;;;5092015;28;20035;-77
2023/06/21 09:03:40;;;;;;;5.65;4.30;;;;;;;;;;5092720;28;20501;-74
2023/06/21 09:06:06;;;;;;;;;;;;;;;;;;5076051;28;20056;-74
2023/06/21 09:08:33;;;;;;;5.30;3.30;;;;;;;;;;5092976;28;19923;-76
2023/06/21 09:10:59;;;;;;;5.70;3.50;;;;;;;;;;5092525;28;20125;-76
2023/06/21 09:13:27;;;;;;;7.93;3.92;;;;;;;;;;5075596;28;20039;-74
2023/06/21 09:15:54;;;;;;;6.10;3.50;;;;;;;;;;5075108;28;20035;-74
2023/06/21 09:18:21;;;;;;;5.28;3.40;;;;;;;;;;5092400;28;20044;-74
2023/06/21 09:20:47;;;;;;;5.15;3.20;;;;;;;;;;5091353;28;20047;-75
2023/06/21 09:23:14;;;;;;;7.10;3.95;;;;;;;;;;5075659;28;20485;-75
2023/06/21 09:25:40;;;;;;;5.47;3.45;;;;;;;;;;5092233;28;20086;-74
2023/06/21 09:28:06;;;;;;;4.93;3.65;;;;;;;;;;5092005;28;20040;-75
2023/06/21 09:30:32;;;;;;;4.90;3.15;;;;;;;;;;5091914;28;20043;-74
2023/06/21 09:32:58;;;;;;;7.03;3.97;;;;;;;;;;5092815;28;20072;-75
2023/06/21 09:35:25;;;;;;;6.55;3.10;;;;;;;;;;5092198;28;20050;-75
2023/06/21 09:37:51;;;;;;;5.15;2.83;;;;;;;;;;5074759;28;20055;-74
2023/06/21 09:40:17;;;;;;;4.82;2.85;;;;;;;;;;5093127;28;20040;-74
2023/06/21 09:42:45;;;;;;;4.10;2.88;;;;;;;;;;5089708;28;20044;-75
2023/06/21 09:45:11;;;;;;;4.25;2.72;;;;;;;;;;5092080;28;20480;-75
2023/06/21 09:47:40;;;;;;;5.90;4.13;;;;;;;;;;5092088;28;20071;-75
2023/06/21 09:50:07;;;;;;;6.95;4.30;;;;;;;;;;5091873;28;20090;-74
2023/06/21 09:52:33;;;;;;;6.13;4.28;;;;;;;;;;5092456;28;20077;-74
2023/06/21 09:54:59;;;;;;;6.57;4.20;;;;;;;;;;5091505;28;20396;-74
2023/06/21 09:57:29;;;;;;;10.80;4.95;;;;;;;;;;5091824;28;20366;-75
2023/06/21 09:59:55;;;;;;;6.80;4.28;;;;;;;;;;5074340;28;20054;-75
2023/06/21 10:02:22;;;;;;;8.90;4.47;;;;;;;;;;5090787;28;20109;-75
2023/06/21 10:04:54;;;;;;;4.97;3.67;;;;;;;;;;5091146;28;20036;-74
2023/06/21 10:07:20;;;;;;;6.82;3.60;;;;;;;;;;5091623;28;20564;-74
2023/06/21 10:09:47;;;;;;;6.70;4.45;;;;;;;;;;5074450;28;20435;-74
2023/06/21 10:12:14;;;;;;;6.38;4.57;;;;;;;;;;5091531;28;20036;-75
2023/06/21 10:14:40;;;;;;;6.38;4.22;;;;;;;;;;5091196;28;20050;-75
2023/06/21 10:17:07;;;;;;;5.70;4.38;;;;;;;;;;5074472;28;20527;-74
2023/06/21 10:19:34;;;;;;;6.05;4.38;;;;;;;;;;5091256;28;20036;-75
2023/06/21 10:22:10;;;;;;;8.80;4.65;;;;;;;;;;5091059;28;20523;-75
2023/06/21 10:25:03;;;;;;;5.10;3.80;;;;;;;;;;5073334;28;20040;-75
2023/06/21 10:27:30;;;;;;;6.22;3.97;;;;;;;;;;5086749;28;20560;-75
2023/06/21 10:29:57;;;;;;;6.82;3.60;;;;;;;;;;5074196;28;20477;-74
2023/06/21 10:32:28;;;;;;;5.20;3.40;;;;;;;;;;5090899;28;20040;-75
2023/06/21 10:34:58;;;;;;;4.70;2.92;;;;;;;;;;5090022;28;20035;-76
2023/06/21 10:37:33;;;;;;;4.72;3.28;;;;;;;;;;5090982;28;20047;-74
2023/06/21 10:40:07;;;;;;;4.70;3.40;;;;;;;;;;5090585;28;20040;-75
2023/06/21 10:42:33;;;;;;;5.38;3.28;;;;;;;;;;5091092;28;20447;-73
2023/06/21 10:45:01;;;;;;;4.97;3.30;;;;;;;;;;5090027;28;20523;-75
2023/06/21 10:47:27;;;;;;;8.00;3.92;;;;;;;;;;5092356;28;20047;-74
2023/06/21 10:50:00;;;;;;;5.78;3.67;;;;;;;;;;5090590;28;20506;-74
2023/06/21 10:52:27;;;;;;;5.75;4.25;;;;;;;;;;5092170;28;20043;-75
2023/06/21 10:54:54;;;;;;;6.63;3.50;;;;;;;;;;5076863;28;20178;-74
2023/06/21 10:57:20;;;;;;;4.57;3.15;;;;;;;;;;5094630;28;20044;-75
2023/06/21 10:59:47;;;;;;;4.25;2.70;;;;;;;;;;5094944;28;20123;-74
2023/06/21 11:02:13;;;;;;;6.32;3.28;;;;;;;;;;5095838;28;20559;-75
2023/06/21 11:04:58;;;;;;;4.32;2.88;;;;;;;;;;5094791;28;20046;-75
2023/06/21 11:07:24;;;;;;;5.82;3.00;;;;;;;;;;5080310;28;20488;-74
2023/06/21 11:09:53;;;;;;;5.07;2.92;;;;;;;;;;5094373;28;20047;-74
2023/06/21 11:12:19;;;;;;;6.88;2.67;;;;;;;;;;5094927;28;20481;-75
2023/06/21 11:14:47;;;;;;;6.25;2.95;;;;;;;;;;5094854;28;20379;-73
2023/06/21 11:17:14;;;;;;;4.45;3.45;;;;;;;;;;5095101;28;20075;-76
2023/06/21 11:19:43;;;;;;;4.63;3.10;;;;;;;;;;5095563;28;20040;-74
2023/06/21 11:22:23;;;;;;;4.55;3.47;;;;;;;;;;5095498;28;20473;-75
2023/06/21 11:24:50;;;;;;;5.60;4.30;;;;;;;;;;5081290;28;20042;-74
2023/06/21 11:27:16;;;;;;;6.38;3.88;;;;;;;;;;5094505;28;20080;-74
2023/06/21 11:29:43;;;;;;;6.22;3.40;;;;;;;;;;5094437;28;20043;-74
2023/06/21 11:32:10;;;;;;;4.82;3.00;;;;;;;;;;5095096;28;20035;-75
2023/06/21 11:34:36;;;;;;;4.53;3.33;;;;;;;;;;5094071;28;20043;-75
2023/06/21 11:37:21;;;;;;;8.07;4.90;;;;;;;;;;5094856;28;20040;-74
2023/06/21 11:39:57;;;;;;;7.68;4.38;;;;;;;;;;5094322;28;20484;-74
2023/06/21 11:42:27;;;;;;;5.55;2.60;;;;;;;;;;5094211;28;20044;-73
2023/06/21 11:44:55;;;;;;;4.97;3.00;;;;;;;;;;5094700;28;20047;-74
2023/06/21 11:47:21;;;;;;;4.88;2.78;;;;;;;;;;5093806;28;20040;-74
2023/06/21 11:49:49;;;;;;;5.85;2.47;;;;;;;;;;5093922;28;20036;-74
2023/06/21 11:52:17;;;;;;;5.35;3.30;;;;;;;;;;5093693;28;20055;-75
2023/06/21 11:54:43;;;;;;;6.05;3.78;;;;;;;;;;5093695;28;20044;-75
2023/06/21 11:57:09;;;;;;;5.93;3.78;;;;;;;;;;5094610;28;20063;-74
2023/06/21 11:59:36;;;;;;;5.28;4.00;;;;;;;;;;5094796;28;20177;-75
2023/06/21 12:02:28;;;;;;;6.53;4.30;;;;;;;;;;5093102;28;20048;-74
2023/06/21 12:04:55;;;;;;;9.05;2.70;;;;;;;;;;5090036;28;20051;-75
2023/06/21 12:07:21;;;;;;;3.03;2.10;;;;;;;;;;5093971;28;20054;-74
2023/06/21 12:09:48;;;;;;;5.97;3.63;;;;;;;;;;5092734;28;20036;-73
2023/06/21 12:12:14;;;;;;;4.88;3.40;;;;;;;;;;5093020;28;20162;-73
2023/06/21 12:14:41;;;;;;;5.70;2.70;;;;;;;;;;5094707;28;20036;-74
2023/06/21 12:17:07;;;;;;;5.32;2.60;;;;;;;;;;5093222;28;20068;-75
2023/06/21 12:19:33;;;;;;;4.50;3.00;;;;;;;;;;5094293;28;20032;-74
2023/06/21 12:22:00;;;;;;;4.93;2.40;;;;;;;;;;5094214;28;20040;-74
2023/06/21 12:24:27;;;;;;;4.25;2.00;;;;;;;;;;5093140;28;20089;-74
2023/06/21 12:26:54;;;;;;;5.05;1.70;;;;;;;;;;5094554;28;20039;-74
2023/06/21 12:29:20;;;;;;;3.78;1.77;;;;;;;;;;5092423;28;20043;-74
2023/06/21 12:31:46;;;;;;;3.28;1.75;;;;;;;;;;5093173;28;20096;-74
2023/06/21 12:34:16;;;;;;;9.10;2.30;;;;;;;;;;5093454;28;20047;-75
2023/06/21 12:36:45;;;;;;;8.70;2.25;;;;;;;;;;5093508;28;20081;-74
2023/06/21 12:39:12;;;;;;;3.45;1.95;;;;;;;;;;5075902;28;20051;-74
2023/06/21 12:41:40;;;;;;;5.18;2.15;;;;;;;;;;5093902;28;20047;-74
2023/06/21 12:44:07;;;;;;;5.28;2.33;;;;;;;;;;5092668;28;20503;-75
2023/06/21 12:46:37;;;;;;;3.17;1.60;;;;;;;;;;5092529;28;20124;-74
2023/06/21 12:49:03;;;;;;;5.28;2.00;;;;;;;;;;5075714;28;20396;-75
2023/06/21 12:51:30;;;;;;;5.78;3.90;;;;;;;;;;5092518;28;20040;-74
2023/06/21 12:53:57;;;;;;;6.85;3.38;;;;;;;;;;5093870;28;20068;-74
2023/06/21 12:56:27;;;;;;;5.78;3.53;;;;;;;;;;5092496;28;20047;-74
2023/06/21 12:58:53;;;;;;;6.43;2.97;;;;;;;;;;5075387;28;20047;-74
2023/06/21 13:01:19;;;;;;;7.18;3.00;;;;;;;;;;5091919;28;20412;-74
2023/06/21 13:03:45;;;;;;;5.47;2.67;;;;;;;;;;5092530;28;20084;-74
2023/06/21 13:06:12;;;;;;;5.13;2.92;;;;;;;;;;5092101;28;20423;-74
2023/06/21 13:08:38;;;;;;;5.28;3.47;;;;;;;;;;5092641;28;20036;-74
2023/06/21 13:11:04;;;;;;;5.70;3.25;;;;;;;;;;5091384;28;20043;-73
2023/06/21 13:13:31;;;;;;;5.97;3.50;;;;;;;;;;5092718;28;20055;-74
2023/06/21 13:15:58;;;;;;;6.93;3.50;;;;;;;;;;5091701;28;20036;-73
2023/06/21 13:18:27;;;;;;;5.45;3.35;;;;;;;;;;5092251;28;20119;-74
2023/06/21 13:20:59;;;;;;;6.22;3.70;;;;;;;;;;5091599;28;20036;-74
2023/06/21 13:23:26;;;;;;;10.63;3.95;;;;;;;;;;5092233;28;20477;-75
2023/06/21 13:25:52;;;;;;;8.38;4.55;;;;;;;;;;5092050;28;20048;-74
2023/06/21 13:28:18;;;;;;;9.65;5.20;;;;;;;;;;5091894;28;20255;-74
2023/06/21 13:30:44;;;;;;;9.27;5.47;;;;;;;;;;5092160;28;20146;-74
2023/06/21 13:33:11;;;;;;;11.30;5.78;;;;;;;;;;5091434;28;20051;-73
2023/06/21 13:35:37;;;;;;;8.93;5.47;;;;;;;;;;5091781;28;20048;-75
2023/06/21 13:38:03;;;;;;;9.65;4.68;;;;;;;;;;5091664;28;20040;-74
2023/06/21 13:40:29;;;;;;;10.70;4.72;;;;;;;;;;5091950;28;20050;-74
2023/06/21 13:42:55;;;;;;;14.65;7.85;;;;;;;;;;5092000;28;20538;-74
2023/06/21 13:45:21;;;;;;;15.60;7.13;;;;;;;;;;5091200;28;20068;-75
2023/06/21 13:47:47;;;;;;;9.25;5.78;;;;;;;;;;5093506;28;20042;-75
2023/06/21 13:50:13;;;;;;;10.48;6.75;;;;;;;;;;5092712;28;20568;-74
2023/06/21 13:52:39;;;;;;;11.65;6.95;;;;;;;;;;5075119;28;20040;-74
2023/06/21 13:55:08;;;;;;;9.32;3.70;;;;;;;;;;5093016;28;20032;-74
2023/06/21 13:57:34;;;;;;;10.98;6.07;;;;;;;;;;5091733;28;20097;-75
2023/06/21 14:00:00;;;;;;;10.13;5.55;;;;;;;;;;5074165;28;20511;-74
2023/06/21 14:02:26;;;;;;;21.65;5.80;;;;;;;;;;5074350;28;20051;-74
2023/06/21 14:04:52;;;;;;;11.32;5.40;;;;;;;;;;5074461;28;20075;-74
2023/06/21 14:07:18;;;;;;;12.90;5.65;;;;;;;;;;5091217;28;20051;-74
2023/06/21 14:09:45;;;;;;;12.98;6.32;;;;;;;;;;5092327;28;20507;-75
2023/06/21 14:12:11;;;;;;;8.25;4.90;;;;;;;;;;5092096;28;20118;-74
2023/06/21 14:14:44;;;;;;;8.80;4.55;;;;;;;;;;5074731;28;20485;-74
2023/06/21 14:17:11;;;;;;;10.95;5.63;;;;;;;;;;5091817;28;20047;-74
2023/06/21 14:19:40;;;;;;;8.10;5.57;;;;;;;;;;5091361;28;20043;-74
2023/06/21 14:22:08;;;;;;;10.18;5.10;;;;;;;;;;5075178;28;20119;-74
2023/06/21 14:24:34;;;;;;;10.80;6.18;;;;;;;;;;5091401;28;20500;-74
2023/06/21 14:27:00;;;;;;;19.45;6.20;;;;;;;;;;5090979;28;20093;-75
2023/06/21 14:29:26;;;;;;;9.98;6.30;;;;;;;;;;5090034;28;20051;-74
2023/06/21 14:31:52;;;;;;;9.80;4.93;;;;;;;;;;5090507;28;20032;-74